sensor_id;sensor_type;location;lat;lon;timestamp;P1;durP1;ratioP1;P2;durP2;ratioP2
13445;SDS011;6795;51.232;3.764;2023-11-19T00:00:26;30.42;;;4.78;;
13445;SDS011;6795;51.232;3.764;2023-11-19T00:02:55;20.75;;;4.85;;
13445;SDS011;6795;51.232;3.764;2023-11-19T00:05:23;30.75;;;5.10;;
13445;SDS011;6795;51.232;3.764;2023-11-19T00:07:51;23.35;;;5.20;;
13445;SDS011;6795;51.232;3.764;2023-11-19T00:10:20;15.90;;;3.15;;
13445;SDS011;6795;51.232;3.764;2023-11-19T00:12:49;31.42;;;4.53;;
13445;SDS011;6795;51.232;3.764;2023-11-19T00:15:19;21.60;;;4.10;;
13445;SDS011;6795;51.232;3.764;2023-11-19T00:17:47;31.02;;;4.68;;
13445;SDS011;6795;51.232;3.764;2023-11-19T00:20:17;32.78;;;6.57;;
13445;SDS011;6795;51.232;3.764;2023-11-19T00:22:46;36.50;;;14.30;;
13445;SDS011;6795;51.232;3.764;2023-11-19T00:25:19;28.30;;;5.82;;
13445;SDS011;6795;51.232;3.764;2023-11-19T00:27:48;23.95;;;5.20;;
13445;SDS011;6795;51.232;3.764;2023-11-19T00:30:19;24.75;;;5.78;;
13445;SDS011;6795;51.232;3.764;2023-11-19T00:32:47;20.63;;;4.90;;
13445;SDS011;6795;51.232;3.764;2023-11-19T00:35:15;30.23;;;5.32;;
13445;SDS011;6795;51.232;3.764;2023-11-19T00:37:44;30.85;;;5.65;;
13445;SDS011;6795;51.232;3.764;2023-11-19T00:40:14;26.45;;;5.88;;
13445;SDS011;6795;51.232;3.764;2023-11-19T00:42:45;37.47;;;6.75;;
13445;SDS011;6795;51.232;3.764;2023-11-19T00:45:14;37.28;;;6.13;;
13445;SDS011;6795;51.232;3.764;2023-11-19T00:47:44;36.40;;;6.10;;
13445;SDS011;6795;51.232;3.764;2023-11-19T00:50:13;38.63;;;5.72;;
13445;SDS011;6795;51.232;3.764;2023-11-19T00:52:41;36.53;;;5.28;;
13445;SDS011;6795;51.232;3.764;2023-11-19T00:55:09;46.15;;;9.20;;
13445;SDS011;6795;51.232;3.764;2023-11-19T00:57:38;48.85;;;6.10;;
13445;SDS011;6795;51.232;3.764;2023-11-19T01:00:07;48.92;;;8.85;;
13445;SDS011;6795;51.232;3.764;2023-11-19T01:02:47;42.28;;;7.35;;
13445;SDS011;6795;51.232;3.764;2023-11-19T01:05:18;45.50;;;7.15;;
13445;SDS011;6795;51.232;3.764;2023-11-19T01:07:49;42.28;;;6.03;;
13445;SDS011;6795;51.232;3.764;2023-11-19T01:10:21;42.97;;;6.53;;
13445;SDS011;6795;51.232;3.764;2023-11-19T01:12:49;47.70;;;7.30;;
13445;SDS011;6795;51.232;3.764;2023-11-19T01:15:18;51.00;;;7.53;;
13445;SDS011;6795;51.232;3.764;2023-11-19T01:17:48;55.95;;;8.13;;
13445;SDS011;6795;51.232;3.764;2023-11-19T01:20:19;48.63;;;6.43;;
13445;SDS011;6795;51.232;3.764;2023-11-19T01:22:48;60.40;;;9.02;;
13445;SDS011;6795;51.232;3.764;2023-11-19T01:25:16;57.38;;;6.47;;
13445;SDS011;6795;51.232;3.764;2023-11-19T01:27:46;48.88;;;6.18;;
13445;SDS011;6795;51.232;3.764;2023-11-19T01:30:16;50.45;;;6.57;;
13445;SDS011;6795;51.232;3.764;2023-11-19T01:32:46;55.42;;;8.48;;
13445;SDS011;6795;51.232;3.764;2023-11-19T01:35:16;44.30;;;7.00;;
13445;SDS011;6795;51.232;3.764;2023-11-19T01:37:44;54.72;;;7.25;;
13445;SDS011;6795;51.232;3.764;2023-11-19T01:40:13;46.85;;;6.93;;
13445;SDS011;6795;51.232;3.764;2023-11-19T01:42:42;57.33;;;7.03;;
13445;SDS011;6795;51.232;3.764;2023-11-19T01:45:10;62.95;;;10.45;;
13445;SDS011;6795;51.232;3.764;2023-11-19T01:47:49;52.03;;;6.43;;
13445;SDS011;6795;51.232;3.764;2023-11-19T01:50:20;43.42;;;6.60;;
13445;SDS011;6795;51.232;3.764;2023-11-19T01:52:51;44.63;;;7.32;;
13445;SDS011;6795;51.232;3.764;2023-11-19T01:55:20;62.72;;;6.68;;
13445;SDS011;6795;51.232;3.764;2023-11-19T01:57:49;58.78;;;8.20;;
13445;SDS011;6795;51.232;3.764;2023-11-19T02:00:18;59.17;;;7.95;;
13445;SDS011;6795;51.232;3.764;2023-11-19T02:02:47;49.05;;;7.57;;
13445;SDS011;6795;51.232;3.764;2023-11-19T02:05:16;66.63;;;6.97;;
13445;SDS011;6795;51.232;3.764;2023-11-19T02:07:46;57.22;;;9.27;;
13445;SDS011;6795;51.232;3.764;2023-11-19T02:10:17;66.50;;;10.38;;
13445;SDS011;6795;51.232;3.764;2023-11-19T02:12:46;64.88;;;8.80;;
13445;SDS011;6795;51.232;3.764;2023-11-19T02:15:14;54.10;;;7.07;;
13445;SDS011;6795;51.232;3.764;2023-11-19T02:17:45;62.85;;;7.68;;
13445;SDS011;6795;51.232;3.764;2023-11-19T02:20:13;51.17;;;7.35;;
13445;SDS011;6795;51.232;3.764;2023-11-19T02:22:42;50.72;;;7.18;;
13445;SDS011;6795;51.232;3.764;2023-11-19T02:25:15;53.63;;;7.32;;
13445;SDS011;6795;51.232;3.764;2023-11-19T02:27:51;54.47;;;7.50;;
13445;SDS011;6795;51.232;3.764;2023-11-19T02:30:23;54.30;;;5.72;;
13445;SDS011;6795;51.232;3.764;2023-11-19T02:32:53;62.00;;;8.88;;
13445;SDS011;6795;51.232;3.764;2023-11-19T02:35:23;52.40;;;5.53;;
13445;SDS011;6795;51.232;3.764;2023-11-19T02:37:52;51.38;;;6.80;;
13445;SDS011;6795;51.232;3.764;2023-11-19T02:40:22;49.55;;;6.45;;
13445;SDS011;6795;51.232;3.764;2023-11-19T02:42:53;61.22;;;9.02;;
13445;SDS011;6795;51.232;3.764;2023-11-19T02:45:22;54.30;;;6.43;;
13445;SDS011;6795;51.232;3.764;2023-11-19T02:47:52;52.58;;;6.70;;
13445;SDS011;6795;51.232;3.764;2023-11-19T02:50:21;55.85;;;8.10;;
13445;SDS011;6795;51.232;3.764;2023-11-19T02:52:53;49.25;;;7.03;;
13445;SDS011;6795;51.232;3.764;2023-11-19T02:55:23;57.88;;;8.07;;
13445;SDS011;6795;51.232;3.764;2023-11-19T02:57:56;64.47;;;10.75;;
13445;SDS011;6795;51.232;3.764;2023-11-19T03:00:26;60.00;;;9.55;;
13445;SDS011;6795;51.232;3.764;2023-11-19T03:03:02;68.45;;;8.55;;
13445;SDS011;6795;51.232;3.764;2023-11-19T03:05:45;53.25;;;6.65;;
13445;SDS011;6795;51.232;3.764;2023-11-19T03:08:15;54.00;;;7.97;;
13445;SDS011;6795;51.232;3.764;2023-11-19T03:10:46;58.17;;;7.75;;
13445;SDS011;6795;51.232;3.764;2023-11-19T03:13:16;49.42;;;6.38;;
13445;SDS011;6795;51.232;3.764;2023-11-19T03:15:45;56.25;;;6.55;;
13445;SDS011;6795;51.232;3.764;2023-11-19T03:18:14;53.10;;;6.72;;
13445;SDS011;6795;51.232;3.764;2023-11-19T03:20:42;52.53;;;7.30;;
13445;SDS011;6795;51.232;3.764;2023-11-19T03:23:11;48.88;;;6.97;;
13445;SDS011;6795;51.232;3.764;2023-11-19T03:25:39;54.70;;;7.50;;
13445;SDS011;6795;51.232;3.764;2023-11-19T03:28:07;50.97;;;7.18;;
13445;SDS011;6795;51.232;3.764;2023-11-19T03:30:39;55.95;;;8.00;;
13445;SDS011;6795;51.232;3.764;2023-11-19T03:33:07;53.22;;;6.82;;
13445;SDS011;6795;51.232;3.764;2023-11-19T03:35:36;55.55;;;7.18;;
13445;SDS011;6795;51.232;3.764;2023-11-19T03:38:06;54.63;;;7.05;;
13445;SDS011;6795;51.232;3.764;2023-11-19T03:40:34;45.85;;;6.28;;
13445;SDS011;6795;51.232;3.764;2023-11-19T03:43:04;48.20;;;6.85;;
13445;SDS011;6795;51.232;3.764;2023-11-19T03:45:32;63.08;;;9.25;;
13445;SDS011;6795;51.232;3.764;2023-11-19T03:48:04;59.97;;;9.55;;
13445;SDS011;6795;51.232;3.764;2023-11-19T03:50:33;45.17;;;5.70;;
13445;SDS011;6795;51.232;3.764;2023-11-19T03:53:01;44.30;;;5.63;;
13445;SDS011;6795;51.232;3.764;2023-11-19T03:55:31;59.28;;;7.10;;
13445;SDS011;6795;51.232;3.764;2023-11-19T03:57:59;51.33;;;6.13;;
13445;SDS011;6795;51.232;3.764;2023-11-19T04:00:28;46.50;;;7.32;;
13445;SDS011;6795;51.232;3.764;2023-11-19T04:02:56;52.33;;;7.25;;
13445;SDS011;6795;51.232;3.764;2023-11-19T04:05:26;53.88;;;6.10;;
13445;SDS011;6795;51.232;3.764;2023-11-19T04:07:55;54.38;;;7.80;;
13445;SDS011;6795;51.232;3.764;2023-11-19T04:10:23;49.10;;;6.32;;
13445;SDS011;6795;51.232;3.764;2023-11-19T04:12:54;63.03;;;7.20;;
13445;SDS011;6795;51.232;3.764;2023-11-19T04:15:22;57.42;;;9.35;;
13445;SDS011;6795;51.232;3.764;2023-11-19T04:17:51;53.60;;;6.70;;
13445;SDS011;6795;51.232;3.764;2023-11-19T04:20:20;60.60;;;8.32;;
13445;SDS011;6795;51.232;3.764;2023-11-19T04:22:51;55.90;;;7.20;;
13445;SDS011;6795;51.232;3.764;2023-11-19T04:25:20;55.47;;;7.68;;
13445;SDS011;6795;51.232;3.764;2023-11-19T04:27:49;59.95;;;6.47;;
13445;SDS011;6795;51.232;3.764;2023-11-19T04:30:17;52.05;;;6.00;;
13445;SDS011;6795;51.232;3.764;2023-11-19T04:32:46;46.75;;;7.13;;
13445;SDS011;6795;51.232;3.764;2023-11-19T04:35:15;57.15;;;8.52;;
13445;SDS011;6795;51.232;3.764;2023-11-19T04:37:43;61.25;;;7.60;;
13445;SDS011;6795;51.232;3.764;2023-11-19T04:40:13;55.05;;;6.22;;
13445;SDS011;6795;51.232;3.764;2023-11-19T04:42:42;51.90;;;6.75;;
13445;SDS011;6795;51.232;3.764;2023-11-19T04:45:11;60.33;;;6.85;;
13445;SDS011;6795;51.232;3.764;2023-11-19T04:47:40;57.22;;;8.25;;
13445;SDS011;6795;51.232;3.764;2023-11-19T04:50:08;53.15;;;7.22;;
13445;SDS011;6795;51.232;3.764;2023-11-19T04:52:38;60.47;;;7.10;;
13445;SDS011;6795;51.232;3.764;2023-11-19T04:55:08;55.05;;;7.38;;
13445;SDS011;6795;51.232;3.764;2023-11-19T04:57:40;44.30;;;5.20;;
13445;SDS011;6795;51.232;3.764;2023-11-19T05:00:10;62.67;;;5.20;;
13445;SDS011;6795;51.232;3.764;2023-11-19T05:02:43;51.35;;;6.65;;
13445;SDS011;6795;51.232;3.764;2023-11-19T05:05:12;50.90;;;5.10;;
13445;SDS011;6795;51.232;3.764;2023-11-19T05:07:45;63.67;;;8.68;;
13445;SDS011;6795;51.232;3.764;2023-11-19T05:10:14;53.78;;;5.97;;
13445;SDS011;6795;51.232;3.764;2023-11-19T05:12:44;65.70;;;6.55;;
13445;SDS011;6795;51.232;3.764;2023-11-19T05:15:13;37.25;;;5.50;;
13445;SDS011;6795;51.232;3.764;2023-11-19T05:17:41;50.60;;;6.75;;
13445;SDS011;6795;51.232;3.764;2023-11-19T05:20:09;44.72;;;5.60;;
13445;SDS011;6795;51.232;3.764;2023-11-19T05:22:42;43.92;;;6.15;;
13445;SDS011;6795;51.232;3.764;2023-11-19T05:25:10;54.88;;;5.88;;
13445;SDS011;6795;51.232;3.764;2023-11-19T05:27:39;65.80;;;8.52;;
13445;SDS011;6795;51.232;3.764;2023-11-19T05:30:09;50.70;;;5.40;;
13445;SDS011;6795;51.232;3.764;2023-11-19T05:32:38;58.63;;;5.28;;
13445;SDS011;6795;51.232;3.764;2023-11-19T05:35:07;41.60;;;5.15;;
13445;SDS011;6795;51.232;3.764;2023-11-19T05:37:36;52.00;;;7.72;;
13445;SDS011;6795;51.232;3.764;2023-11-19T05:40:05;54.28;;;7.38;;
13445;SDS011;6795;51.232;3.764;2023-11-19T05:42:41;42.55;;;4.88;;
13445;SDS011;6795;51.232;3.764;2023-11-19T05:45:11;44.50;;;5.97;;
13445;SDS011;6795;51.232;3.764;2023-11-19T05:47:40;53.42;;;5.38;;
13445;SDS011;6795;51.232;3.764;2023-11-19T05:50:10;42.95;;;6.00;;
13445;SDS011;6795;51.232;3.764;2023-11-19T05:52:38;47.53;;;7.57;;
13445;SDS011;6795;51.232;3.764;2023-11-19T05:55:06;49.40;;;5.97;;
13445;SDS011;6795;51.232;3.764;2023-11-19T05:57:37;38.85;;;4.25;;
13445;SDS011;6795;51.232;3.764;2023-11-19T06:00:09;52.53;;;6.40;;
13445;SDS011;6795;51.232;3.764;2023-11-19T06:02:42;49.70;;;4.95;;
13445;SDS011;6795;51.232;3.764;2023-11-19T06:05:10;52.00;;;5.25;;
13445;SDS011;6795;51.232;3.764;2023-11-19T06:07:39;47.70;;;5.70;;
13445;SDS011;6795;51.232;3.764;2023-11-19T06:10:08;43.83;;;4.68;;
13445;SDS011;6795;51.232;3.764;2023-11-19T06:12:37;36.55;;;4.28;;
13445;SDS011;6795;51.232;3.764;2023-11-19T06:15:08;50.13;;;6.22;;
13445;SDS011;6795;51.232;3.764;2023-11-19T06:17:39;45.58;;;5.63;;
13445;SDS011;6795;51.232;3.764;2023-11-19T06:20:08;44.20;;;5.70;;
13445;SDS011;6795;51.232;3.764;2023-11-19T06:22:38;46.63;;;6.20;;
13445;SDS011;6795;51.232;3.764;2023-11-19T06:25:09;42.47;;;5.28;;
13445;SDS011;6795;51.232;3.764;2023-11-19T06:27:39;39.15;;;5.28;;
13445;SDS011;6795;51.232;3.764;2023-11-19T06:30:07;40.92;;;5.88;;
13445;SDS011;6795;51.232;3.764;2023-11-19T06:32:36;48.20;;;6.95;;
13445;SDS011;6795;51.232;3.764;2023-11-19T06:35:07;47.38;;;5.45;;
13445;SDS011;6795;51.232;3.764;2023-11-19T06:37:37;36.92;;;5.32;;
13445;SDS011;6795;51.232;3.764;2023-11-19T06:40:07;44.60;;;5.13;;
13445;SDS011;6795;51.232;3.764;2023-11-19T06:42:37;42.60;;;5.30;;
13445;SDS011;6795;51.232;3.764;2023-11-19T06:45:06;54.17;;;6.50;;
13445;SDS011;6795;51.232;3.764;2023-11-19T06:47:34;35.30;;;4.53;;
13445;SDS011;6795;51.232;3.764;2023-11-19T06:50:03;46.63;;;6.72;;
13445;SDS011;6795;51.232;3.764;2023-11-19T06:52:35;36.13;;;4.72;;
13445;SDS011;6795;51.232;3.764;2023-11-19T06:55:04;39.83;;;6.65;;
13445;SDS011;6795;51.232;3.764;2023-11-19T06:57:34;51.13;;;5.28;;
13445;SDS011;6795;51.232;3.764;2023-11-19T07:00:03;41.65;;;5.03;;
13445;SDS011;6795;51.232;3.764;2023-11-19T07:02:33;41.80;;;4.78;;
13445;SDS011;6795;51.232;3.764;2023-11-19T07:05:02;49.10;;;6.95;;
13445;SDS011;6795;51.232;3.764;2023-11-19T07:07:31;47.00;;;7.35;;
13445;SDS011;6795;51.232;3.764;2023-11-19T07:10:01;44.83;;;5.30;;
13445;SDS011;6795;51.232;3.764;2023-11-19T07:12:31;42.00;;;6.18;;
13445;SDS011;6795;51.232;3.764;2023-11-19T07:14:59;45.00;;;4.75;;
13445;SDS011;6795;51.232;3.764;2023-11-19T07:17:29;43.13;;;7.25;;
13445;SDS011;6795;51.232;3.764;2023-11-19T07:19:58;44.65;;;4.80;;
13445;SDS011;6795;51.232;3.764;2023-11-19T07:22:26;42.65;;;5.15;;
13445;SDS011;6795;51.232;3.764;2023-11-19T07:24:56;46.92;;;5.13;;
13445;SDS011;6795;51.232;3.764;2023-11-19T07:27:27;35.28;;;4.38;;
13445;SDS011;6795;51.232;3.764;2023-11-19T07:29:55;44.03;;;5.10;;
13445;SDS011;6795;51.232;3.764;2023-11-19T07:32:24;38.55;;;4.38;;
13445;SDS011;6795;51.232;3.764;2023-11-19T07:34:52;31.67;;;4.55;;
13445;SDS011;6795;51.232;3.764;2023-11-19T07:37:23;37.80;;;4.95;;
13445;SDS011;6795;51.232;3.764;2023-11-19T07:39:51;46.38;;;6.15;;
13445;SDS011;6795;51.232;3.764;2023-11-19T07:42:19;41.47;;;4.93;;
13445;SDS011;6795;51.232;3.764;2023-11-19T07:44:49;43.53;;;6.32;;
13445;SDS011;6795;51.232;3.764;2023-11-19T07:47:18;35.25;;;3.78;;
13445;SDS011;6795;51.232;3.764;2023-11-19T07:49:46;37.38;;;5.78;;
13445;SDS011;6795;51.232;3.764;2023-11-19T07:52:14;39.33;;;4.18;;
13445;SDS011;6795;51.232;3.764;2023-11-19T07:54:46;35.97;;;5.07;;
13445;SDS011;6795;51.232;3.764;2023-11-19T07:57:14;43.88;;;6.18;;
13445;SDS011;6795;51.232;3.764;2023-11-19T07:59:43;43.30;;;6.18;;
13445;SDS011;6795;51.232;3.764;2023-11-19T08:02:12;39.72;;;5.72;;
13445;SDS011;6795;51.232;3.764;2023-11-19T08:04:41;39.35;;;4.95;;
13445;SDS011;6795;51.232;3.764;2023-11-19T08:07:12;28.52;;;3.38;;
13445;SDS011;6795;51.232;3.764;2023-11-19T08:09:41;38.67;;;5.18;;
13445;SDS011;6795;51.232;3.764;2023-11-19T08:12:09;39.95;;;5.55;;
13445;SDS011;6795;51.232;3.764;2023-11-19T08:14:39;50.83;;;6.57;;
13445;SDS011;6795;51.232;3.764;2023-11-19T08:17:08;45.65;;;6.30;;
13445;SDS011;6795;51.232;3.764;2023-11-19T08:19:38;39.88;;;5.10;;
13445;SDS011;6795;51.232;3.764;2023-11-19T08:22:06;40.60;;;4.30;;
13445;SDS011;6795;51.232;3.764;2023-11-19T08:24:35;62.42;;;10.63;;
13445;SDS011;6795;51.232;3.764;2023-11-19T08:27:04;70.18;;;12.48;;
13445;SDS011;6795;51.232;3.764;2023-11-19T08:29:32;47.20;;;6.78;;
13445;SDS011;6795;51.232;3.764;2023-11-19T08:32:01;46.30;;;5.43;;
13445;SDS011;6795;51.232;3.764;2023-11-19T08:34:30;46.38;;;7.93;;
13445;SDS011;6795;51.232;3.764;2023-11-19T08:37:00;35.13;;;5.18;;
13445;SDS011;6795;51.232;3.764;2023-11-19T08:39:28;40.17;;;6.20;;
13445;SDS011;6795;51.232;3.764;2023-11-19T08:41:57;44.35;;;5.05;;
13445;SDS011;6795;51.232;3.764;2023-11-19T08:44:25;45.97;;;6.47;;
13445;SDS011;6795;51.232;3.764;2023-11-19T08:46:54;44.63;;;7.13;;
13445;SDS011;6795;51.232;3.764;2023-11-19T08:49:22;44.35;;;6.22;;
13445;SDS011;6795;51.232;3.764;2023-11-19T08:51:51;57.42;;;7.35;;
13445;SDS011;6795;51.232;3.764;2023-11-19T08:54:20;31.63;;;4.63;;
13445;SDS011;6795;51.232;3.764;2023-11-19T08:56:49;51.47;;;5.60;;
13445;SDS011;6795;51.232;3.764;2023-11-19T08:59:18;34.28;;;5.55;;
13445;SDS011;6795;51.232;3.764;2023-11-19T09:01:46;46.55;;;5.20;;
13445;SDS011;6795;51.232;3.764;2023-11-19T09:04:15;45.53;;;4.78;;
13445;SDS011;6795;51.232;3.764;2023-11-19T09:06:44;30.42;;;4.57;;
13445;SDS011;6795;51.232;3.764;2023-11-19T09:09:12;46.15;;;7.18;;
13445;SDS011;6795;51.232;3.764;2023-11-19T09:11:42;30.02;;;4.68;;
13445;SDS011;6795;51.232;3.764;2023-11-19T09:14:11;44.40;;;4.93;;
13445;SDS011;6795;51.232;3.764;2023-11-19T09:16:39;44.72;;;5.70;;
13445;SDS011;6795;51.232;3.764;2023-11-19T09:19:07;34.83;;;5.72;;
13445;SDS011;6795;51.232;3.764;2023-11-19T09:21:36;47.40;;;7.47;;
13445;SDS011;6795;51.232;3.764;2023-11-19T09:24:06;46.75;;;5.43;;
13445;SDS011;6795;51.232;3.764;2023-11-19T09:26:34;37.70;;;6.32;;
13445;SDS011;6795;51.232;3.764;2023-11-19T09:29:07;35.53;;;6.20;;
13445;SDS011;6795;51.232;3.764;2023-11-19T09:31:37;28.75;;;4.30;;
13445;SDS011;6795;51.232;3.764;2023-11-19T09:34:06;41.15;;;6.40;;
13445;SDS011;6795;51.232;3.764;2023-11-19T09:36:35;35.05;;;5.60;;
13445;SDS011;6795;51.232;3.764;2023-11-19T09:39:04;35.72;;;5.82;;
13445;SDS011;6795;51.232;3.764;2023-11-19T09:41:34;32.88;;;3.72;;
13445;SDS011;6795;51.232;3.764;2023-11-19T09:44:03;31.58;;;4.32;;
13445;SDS011;6795;51.232;3.764;2023-11-19T09:46:33;27.13;;;5.68;;
13445;SDS011;6795;51.232;3.764;2023-11-19T09:49:03;29.50;;;5.30;;
13445;SDS011;6795;51.232;3.764;2023-11-19T09:51:34;27.25;;;4.07;;
13445;SDS011;6795;51.232;3.764;2023-11-19T09:54:03;35.15;;;4.75;;
13445;SDS011;6795;51.232;3.764;2023-11-19T09:56:33;31.50;;;4.93;;
13445;SDS011;6795;51.232;3.764;2023-11-19T09:59:05;29.92;;;5.03;;
13445;SDS011;6795;51.232;3.764;2023-11-19T10:01:35;29.30;;;3.50;;
13445;SDS011;6795;51.232;3.764;2023-11-19T10:04:05;27.65;;;4.38;;
13445;SDS011;6795;51.232;3.764;2023-11-19T10:06:35;37.70;;;6.40;;
13445;SDS011;6795;51.232;3.764;2023-11-19T10:09:03;31.98;;;5.47;;
13445;SDS011;6795;51.232;3.764;2023-11-19T10:11:32;32.65;;;5.13;;
13445;SDS011;6795;51.232;3.764;2023-11-19T10:14:01;32.22;;;3.40;;
13445;SDS011;6795;51.232;3.764;2023-11-19T10:16:30;35.22;;;4.18;;
13445;SDS011;6795;51.232;3.764;2023-11-19T10:19:00;25.08;;;4.95;;
13445;SDS011;6795;51.232;3.764;2023-11-19T10:21:32;30.55;;;5.00;;
13445;SDS011;6795;51.232;3.764;2023-11-19T10:24:00;32.17;;;4.20;;
13445;SDS011;6795;51.232;3.764;2023-11-19T10:26:29;34.70;;;5.20;;
13445;SDS011;6795;51.232;3.764;2023-11-19T10:28:57;33.10;;;4.93;;
13445;SDS011;6795;51.232;3.764;2023-11-19T10:31:26;36.08;;;5.00;;
13445;SDS011;6795;51.232;3.764;2023-11-19T10:33:54;33.63;;;4.50;;
13445;SDS011;6795;51.232;3.764;2023-11-19T10:36:27;31.80;;;4.28;;
13445;SDS011;6795;51.232;3.764;2023-11-19T10:39:07;35.97;;;6.20;;
13445;SDS011;6795;51.232;3.764;2023-11-19T10:41:36;33.78;;;5.22;;
13445;SDS011;6795;51.232;3.764;2023-11-19T10:44:05;25.70;;;3.60;;
13445;SDS011;6795;51.232;3.764;2023-11-19T10:46:37;33.10;;;5.97;;
13445;SDS011;6795;51.232;3.764;2023-11-19T10:49:07;32.25;;;5.18;;
13445;SDS011;6795;51.232;3.764;2023-11-19T10:51:39;28.15;;;4.72;;
13445;SDS011;6795;51.232;3.764;2023-11-19T10:54:12;24.70;;;4.40;;
13445;SDS011;6795;51.232;3.764;2023-11-19T10:56:45;22.38;;;3.25;;
13445;SDS011;6795;51.232;3.764;2023-11-19T10:59:21;32.10;;;4.82;;
13445;SDS011;6795;51.232;3.764;2023-11-19T11:01:55;25.20;;;4.90;;
13445;SDS011;6795;51.232;3.764;2023-11-19T11:04:26;27.08;;;5.03;;
13445;SDS011;6795;51.232;3.764;2023-11-19T11:06:59;28.73;;;5.45;;
13445;SDS011;6795;51.232;3.764;2023-11-19T11:09:29;32.78;;;4.68;;
13445;SDS011;6795;51.232;3.764;2023-11-19T11:11:59;19.65;;;4.47;;
13445;SDS011;6795;51.232;3.764;2023-11-19T11:14:29;30.60;;;4.10;;
13445;SDS011;6795;51.232;3.764;2023-11-19T11:17:02;28.77;;;3.72;;
13445;SDS011;6795;51.232;3.764;2023-11-19T11:19:34;21.42;;;3.13;;
13445;SDS011;6795;51.232;3.764;2023-11-19T11:22:05;24.10;;;4.00;;
13445;SDS011;6795;51.232;3.764;2023-11-19T11:24:39;19.00;;;3.08;;
13445;SDS011;6795;51.232;3.764;2023-11-19T11:27:34;22.65;;;3.50;;
13445;SDS011;6795;51.232;3.764;2023-11-19T11:30:20;25.42;;;5.10;;
13445;SDS011;6795;51.232;3.764;2023-11-19T11:33:04;29.85;;;5.28;;
13445;SDS011;6795;51.232;3.764;2023-11-19T11:35:45;27.48;;;4.35;;
13445;SDS011;6795;51.232;3.764;2023-11-19T11:38:22;29.60;;;5.38;;
13445;SDS011;6795;51.232;3.764;2023-11-19T11:43:47;29.27;;;4.70;;
13445;SDS011;6795;51.232;3.764;2023-11-19T11:49:25;28.23;;;3.10;;
13445;SDS011;6795;51.232;3.764;2023-11-19T11:52:00;16.92;;;3.08;;
13445;SDS011;6795;51.232;3.764;2023-11-19T11:54:32;29.83;;;4.07;;
13445;SDS011;6795;51.232;3.764;2023-11-19T11:57:08;23.13;;;2.45;;
13445;SDS011;6795;51.232;3.764;2023-11-19T11:59:46;28.40;;;4.72;;
13445;SDS011;6795;51.232;3.764;2023-11-19T12:02:16;30.83;;;4.18;;
13445;SDS011;6795;51.232;3.764;2023-11-19T12:04:48;36.20;;;6.15;;
13445;SDS011;6795;51.232;3.764;2023-11-19T12:07:19;23.38;;;4.15;;
13445;SDS011;6795;51.232;3.764;2023-11-19T12:09:52;25.88;;;4.20;;
13445;SDS011;6795;51.232;3.764;2023-11-19T12:12:22;29.92;;;4.65;;
13445;SDS011;6795;51.232;3.764;2023-11-19T12:15:07;28.48;;;4.43;;
13445;SDS011;6795;51.232;3.764;2023-11-19T12:17:40;26.23;;;4.72;;
13445;SDS011;6795;51.232;3.764;2023-11-19T12:20:19;22.10;;;2.60;;
13445;SDS011;6795;51.232;3.764;2023-11-19T12:22:53;30.73;;;6.07;;
13445;SDS011;6795;51.232;3.764;2023-11-19T12:25:23;24.83;;;4.13;;
13445;SDS011;6795;51.232;3.764;2023-11-19T12:27:52;29.27;;;3.90;;
13445;SDS011;6795;51.232;3.764;2023-11-19T12:30:22;25.65;;;3.70;;
13445;SDS011;6795;51.232;3.764;2023-11-19T12:32:52;32.58;;;3.80;;
13445;SDS011;6795;51.232;3.764;2023-11-19T12:35:22;33.35;;;4.43;;
13445;SDS011;6795;51.232;3.764;2023-11-19T12:37:51;29.52;;;3.75;;
13445;SDS011;6795;51.232;3.764;2023-11-19T12:40:21;26.15;;;4.22;;
13445;SDS011;6795;51.232;3.764;2023-11-19T12:42:52;28.55;;;4.88;;
13445;SDS011;6795;51.232;3.764;2023-11-19T12:45:22;29.95;;;3.95;;
13445;SDS011;6795;51.232;3.764;2023-11-19T12:48:04;22.90;;;3.60;;
13445;SDS011;6795;51.232;3.764;2023-11-19T12:53:19;27.20;;;4.25;;
13445;SDS011;6795;51.232;3.764;2023-11-19T12:55:50;25.50;;;3.63;;
13445;SDS011;6795;51.232;3.764;2023-11-19T12:58:28;21.05;;;3.35;;
13445;SDS011;6795;51.232;3.764;2023-11-19T13:01:00;19.00;;;3.63;;
13445;SDS011;6795;51.232;3.764;2023-11-19T13:03:30;23.88;;;3.58;;
13445;SDS011;6795;51.232;3.764;2023-11-19T13:06:03;21.20;;;3.67;;
13445;SDS011;6795;51.232;3.764;2023-11-19T13:08:37;20.33;;;3.50;;
13445;SDS011;6795;51.232;3.764;2023-11-19T13:11:08;22.23;;;2.92;;
13445;SDS011;6795;51.232;3.764;2023-11-19T13:13:55;22.83;;;3.28;;
13445;SDS011;6795;51.232;3.764;2023-11-19T13:16:24;22.90;;;3.55;;
13445;SDS011;6795;51.232;3.764;2023-11-19T13:18:54;26.42;;;3.83;;
13445;SDS011;6795;51.232;3.764;2023-11-19T13:21:23;16.85;;;2.53;;
13445;SDS011;6795;51.232;3.764;2023-11-19T13:23:52;25.27;;;4.18;;
13445;SDS011;6795;51.232;3.764;2023-11-19T13:26:22;18.95;;;3.05;;
13445;SDS011;6795;51.232;3.764;2023-11-19T13:28:51;22.85;;;3.72;;
13445;SDS011;6795;51.232;3.764;2023-11-19T13:31:19;27.50;;;4.38;;
13445;SDS011;6795;51.232;3.764;2023-11-19T13:33:49;30.13;;;7.32;;
13445;SDS011;6795;51.232;3.764;2023-11-19T13:36:17;25.02;;;4.13;;
13445;SDS011;6795;51.232;3.764;2023-11-19T13:38:46;28.70;;;3.78;;
13445;SDS011;6795;51.232;3.764;2023-11-19T13:41:14;29.13;;;5.50;;
13445;SDS011;6795;51.232;3.764;2023-11-19T13:43:45;19.80;;;3.83;;
13445;SDS011;6795;51.232;3.764;2023-11-19T13:46:13;32.28;;;6.43;;
13445;SDS011;6795;51.232;3.764;2023-11-19T13:48:42;30.60;;;4.05;;
13445;SDS011;6795;51.232;3.764;2023-11-19T13:51:10;31.92;;;7.95;;
13445;SDS011;6795;51.232;3.764;2023-11-19T13:53:38;38.10;;;8.93;;
13445;SDS011;6795;51.232;3.764;2023-11-19T13:56:10;42.97;;;10.32;;
13445;SDS011;6795;51.232;3.764;2023-11-19T13:58:39;44.55;;;12.38;;
13445;SDS011;6795;51.232;3.764;2023-11-19T14:01:09;32.42;;;6.93;;
13445;SDS011;6795;51.232;3.764;2023-11-19T14:03:40;39.92;;;10.45;;
13445;SDS011;6795;51.232;3.764;2023-11-19T14:06:09;23.95;;;5.07;;
13445;SDS011;6795;51.232;3.764;2023-11-19T14:08:37;31.40;;;5.97;;
13445;SDS011;6795;51.232;3.764;2023-11-19T14:11:06;23.88;;;3.28;;
13445;SDS011;6795;51.232;3.764;2023-11-19T14:13:34;23.75;;;3.55;;
13445;SDS011;6795;51.232;3.764;2023-11-19T14:16:02;26.52;;;4.90;;
13445;SDS011;6795;51.232;3.764;2023-11-19T14:18:34;15.15;;;2.97;;
13445;SDS011;6795;51.232;3.764;2023-11-19T14:21:03;22.63;;;3.60;;
13445;SDS011;6795;51.232;3.764;2023-11-19T14:23:31;20.23;;;2.88;;
13445;SDS011;6795;51.232;3.764;2023-11-19T14:26:00;24.20;;;2.92;;
13445;SDS011;6795;51.232;3.764;2023-11-19T14:28:29;18.73;;;3.17;;
13445;SDS011;6795;51.232;3.764;2023-11-19T14:30:57;18.42;;;2.40;;
13445;SDS011;6795;51.232;3.764;2023-11-19T14:33:26;15.30;;;2.95;;
13445;SDS011;6795;51.232;3.764;2023-11-19T14:35:56;17.10;;;4.80;;
13445;SDS011;6795;51.232;3.764;2023-11-19T14:38:24;28.67;;;7.78;;
13445;SDS011;6795;51.232;3.764;2023-11-19T14:40:52;22.35;;;7.88;;
13445;SDS011;6795;51.232;3.764;2023-11-19T14:43:21;32.95;;;8.50;;
13445;SDS011;6795;51.232;3.764;2023-11-19T14:45:50;24.92;;;4.15;;
13445;SDS011;6795;51.232;3.764;2023-11-19T14:48:21;26.23;;;3.58;;
13445;SDS011;6795;51.232;3.764;2023-11-19T14:50:49;34.38;;;9.40;;
13445;SDS011;6795;51.232;3.764;2023-11-19T14:53:20;30.35;;;10.15;;
13445;SDS011;6795;51.232;3.764;2023-11-19T14:55:49;25.02;;;5.95;;
13445;SDS011;6795;51.232;3.764;2023-11-19T14:58:17;27.70;;;4.45;;
13445;SDS011;6795;51.232;3.764;2023-11-19T15:00:46;27.10;;;5.20;;
13445;SDS011;6795;51.232;3.764;2023-11-19T15:03:15;26.50;;;5.60;;
13445;SDS011;6795;51.232;3.764;2023-11-19T15:05:46;24.70;;;3.67;;
13445;SDS011;6795;51.232;3.764;2023-11-19T15:08:14;30.45;;;4.97;;
13445;SDS011;6795;51.232;3.764;2023-11-19T15:10:44;23.23;;;3.75;;
13445;SDS011;6795;51.232;3.764;2023-11-19T15:13:13;28.40;;;5.07;;